Time;durP1;ratioP1;P1;durP2;ratioP2;P2;SDS_P1;SDS_P2;PMS_P1;PMS_P2;Temp;Humidity;BMP_temperature;BMP_pressure;BME280_temperature;BME280_humidity;BME280_pressure;Samples;Min_cycle;Max_cycle;Signal;HPM_P1;HPM_P2
2023/08/25 00:01:29;;;;;;;8.23;6.43;;;;;;;;;;5007724;28;20233;-61
2023/08/25 00:03:56;;;;;;;8.88;7.97;;;;;;;;;;5020795;28;20208;-60
2023/08/25 00:06:23;;;;;;;8.48;7.57;;;;;;;;;;5016096;28;20205;-60
2023/08/25 00:08:50;;;;;;;8.20;7.40;;;;;;;;;;5006545;28;20208;-60
2023/08/25 00:11:17;;;;;;;11.02;7.28;;;;;;;;;;5022113;28;20224;-60
2023/08/25 00:13:44;;;;;;;9.82;6.38;;;;;;;;;;5016510;28;20679;-60
2023/08/25 00:16:12;;;;;;;9.30;6.60;;;;;;;;;;5006312;28;20211;-60
2023/08/25 00:18:39;;;;;;;7.03;6.43;;;;;;;;;;5010520;28;20212;-60
2023/08/25 00:21:06;;;;;;;8.98;8.18;;;;;;;;;;5009187;28;20231;-60
2023/08/25 00:23:34;;;;;;;9.07;7.00;;;;;;;;;;5012721;28;20212;-60
2023/08/25 00:26:01;;;;;;;7.57;6.97;;;;;;;;;;5023063;28;20212;-61
2023/08/25 00:28:28;;;;;;;8.13;7.28;;;;;;;;;;5004898;28;20584;-60
2023/08/25 00:30:55;;;;;;;7.15;6.53;;;;;;;;;;5013277;28;20717;-60
2023/08/25 00:33:24;;;;;;;11.20;7.65;;;;;;;;;;5007676;28;20201;-60
2023/08/25 00:35:51;;;;;;;7.75;7.05;;;;;;;;;;5024803;28;20212;-60
2023/08/25 00:38:18;;;;;;;7.60;6.90;;;;;;;;;;5009930;28;20201;-60
2023/08/25 00:40:45;;;;;;;7.82;7.13;;;;;;;;;;5012293;28;20290;-60
2023/08/25 00:43:12;;;;;;;8.95;8.07;;;;;;;;;;5023662;28;20204;-60
2023/08/25 00:45:41;;;;;;;9.50;7.90;;;;;;;;;;5012867;28;20936;-60
2023/08/25 00:48:08;;;;;;;8.43;6.95;;;;;;;;;;5018610;28;20236;-60
2023/08/25 00:50:37;;;;;;;8.93;7.68;;;;;;;;;;5007316;28;20249;-60
2023/08/25 00:53:05;;;;;;;7.53;6.82;;;;;;;;;;5022557;28;20208;-60
2023/08/25 00:55:32;;;;;;;7.07;6.53;;;;;;;;;;5008643;28;20240;-61
2023/08/25 00:58:00;;;;;;;8.40;7.30;;;;;;;;;;5006221;28;20228;-62
2023/08/25 01:00:27;;;;;;;10.60;8.18;;;;;;;;;;5014884;28;20205;-61
2023/08/25 01:02:54;;;;;;;8.68;7.95;;;;;;;;;;5014647;28;20270;-61
2023/08/25 01:05:21;;;;;;;11.02;7.70;;;;;;;;;;5010247;28;20651;-61
2023/08/25 01:07:50;;;;;;;6.47;5.93;;;;;;;;;;5004708;28;20213;-61
2023/08/25 01:10:18;;;;;;;12.98;8.80;;;;;;;;;;5022774;28;20706;-61
2023/08/25 01:12:53;;;;;;;7.68;7.00;;;;;;;;;;5008580;28;20549;-61
2023/08/25 01:15:23;;;;;;;9.13;7.70;;;;;;;;;;5008732;28;20604;-61
2023/08/25 01:17:52;;;;;;;14.48;7.90;;;;;;;;;;5020771;28;20866;-61
2023/08/25 01:20:22;;;;;;;16.02;7.97;;;;;;;;;;5012870;28;20205;-61
2023/08/25 01:22:54;;;;;;;10.80;7.07;;;;;;;;;;5001378;28;20639;-61
2023/08/25 01:25:24;;;;;;;12.93;7.15;;;;;;;;;;5012475;28;20212;-61
2023/08/25 01:27:52;;;;;;;8.05;6.97;;;;;;;;;;5017511;28;20208;-62
2023/08/25 01:30:19;;;;;;;11.52;8.65;;;;;;;;;;5006365;28;22184;-61
2023/08/25 01:32:47;;;;;;;7.85;7.15;;;;;;;;;;5017727;28;20204;-61
2023/08/25 01:35:14;;;;;;;10.18;8.82;;;;;;;;;;5023132;28;20221;-60
2023/08/25 01:37:44;;;;;;;8.45;7.50;;;;;;;;;;5022787;28;20566;-60
2023/08/25 01:40:16;;;;;;;8.20;7.32;;;;;;;;;;5014736;28;20213;-61
2023/08/25 01:42:47;;;;;;;8.60;7.75;;;;;;;;;;5022845;28;20698;-60
2023/08/25 01:45:15;;;;;;;8.43;7.43;;;;;;;;;;5016834;28;20208;-60
2023/08/25 01:47:42;;;;;;;8.73;7.05;;;;;;;;;;5015043;28;20207;-60
2023/08/25 01:50:11;;;;;;;8.20;6.75;;;;;;;;;;4998837;28;20209;-60
2023/08/25 01:52:38;;;;;;;10.05;9.00;;;;;;;;;;5001219;28;20229;-60
2023/08/25 01:55:05;;;;;;;11.18;8.35;;;;;;;;;;5015152;28;20579;-60
2023/08/25 01:57:32;;;;;;;7.20;6.60;;;;;;;;;;5016120;28;20216;-60
2023/08/25 02:00:00;;;;;;;8.57;7.78;;;;;;;;;;5001381;28;20220;-60
2023/08/25 02:02:27;;;;;;;11.93;8.20;;;;;;;;;;5015205;28;20337;-60
2023/08/25 02:04:54;;;;;;;9.15;7.55;;;;;;;;;;5005982;28;20555;-60
2023/08/25 02:07:23;;;;;;;11.32;8.15;;;;;;;;;;5018981;28;20207;-60
2023/08/25 02:09:53;;;;;;;10.23;8.38;;;;;;;;;;4999503;28;20224;-60
2023/08/25 02:12:20;;;;;;;11.18;9.07;;;;;;;;;;5008145;28;20307;-60
2023/08/25 02:14:47;;;;;;;12.70;9.82;;;;;;;;;;5014496;28;20224;-60
2023/08/25 02:17:15;;;;;;;9.80;8.85;;;;;;;;;;5002761;28;20252;-60
2023/08/25 02:19:42;;;;;;;9.70;8.77;;;;;;;;;;5003543;28;20200;-60
2023/08/25 02:22:09;;;;;;;15.57;8.93;;;;;;;;;;5012134;28;20208;-60
2023/08/25 02:24:36;;;;;;;12.35;8.60;;;;;;;;;;5004113;28;20231;-60
2023/08/25 02:27:04;;;;;;;13.70;9.95;;;;;;;;;;5021982;28;20204;-60
2023/08/25 02:29:31;;;;;;;11.50;9.25;;;;;;;;;;5003358;28;20298;-60
2023/08/25 02:31:58;;;;;;;11.02;8.88;;;;;;;;;;5008023;28;20247;-60
2023/08/25 02:34:27;;;;;;;11.52;8.52;;;;;;;;;;5010338;28;20262;-61
2023/08/25 02:36:55;;;;;;;10.30;9.07;;;;;;;;;;5016439;28;20258;-60
2023/08/25 02:39:22;;;;;;;18.58;11.27;;;;;;;;;;5014349;28;20217;-60
2023/08/25 02:41:49;;;;;;;12.90;11.02;;;;;;;;;;5009902;28;20208;-60
2023/08/25 02:44:16;;;;;;;12.35;10.18;;;;;;;;;;5014667;28;20207;-60
2023/08/25 02:46:43;;;;;;;16.02;10.45;;;;;;;;;;5012343;28;20579;-60
2023/08/25 02:49:10;;;;;;;10.07;8.23;;;;;;;;;;5013954;28;20669;-60
2023/08/25 02:51:38;;;;;;;20.02;11.05;;;;;;;;;;5013179;28;20702;-60
2023/08/25 02:54:05;;;;;;;18.05;12.57;;;;;;;;;;5004195;28;20208;-61
2023/08/25 02:56:32;;;;;;;11.63;10.20;;;;;;;;;;5005157;28;20208;-60
2023/08/25 02:58:59;;;;;;;13.60;11.00;;;;;;;;;;5021409;28;20215;-60
2023/08/25 03:01:27;;;;;;;14.02;10.27;;;;;;;;;;5018217;28;20236;-60
2023/08/25 03:03:54;;;;;;;13.65;11.50;;;;;;;;;;5005544;28;20212;-60
2023/08/25 03:06:21;;;;;;;15.68;11.70;;;;;;;;;;5002100;28;20215;-60
2023/08/25 03:08:49;;;;;;;13.10;11.70;;;;;;;;;;5015906;28;20601;-60
2023/08/25 03:11:16;;;;;;;18.73;12.57;;;;;;;;;;5005422;28;20235;-60
2023/08/25 03:13:43;;;;;;;12.30;10.52;;;;;;;;;;5016866;28;20289;-60
2023/08/25 03:16:10;;;;;;;12.25;10.55;;;;;;;;;;5012723;28;20588;-60
2023/08/25 03:18:38;;;;;;;13.05;11.63;;;;;;;;;;5014250;28;20211;-60
2023/08/25 03:21:05;;;;;;;14.45;9.63;;;;;;;;;;5020528;28;20201;-60
2023/08/25 03:23:35;;;;;;;10.32;7.82;;;;;;;;;;5001671;28;20219;-60
2023/08/25 03:26:04;;;;;;;12.40;8.73;;;;;;;;;;5000711;28;20686;-60
2023/08/25 03:28:31;;;;;;;9.60;7.75;;;;;;;;;;5012383;28;20209;-60
2023/08/25 03:30:59;;;;;;;11.18;9.90;;;;;;;;;;5004978;28;20228;-61
2023/08/25 03:33:26;;;;;;;21.15;12.68;;;;;;;;;;5004639;28;20219;-60
2023/08/25 03:35:53;;;;;;;26.02;16.67;;;;;;;;;;5000457;28;20215;-61
2023/08/25 03:38:20;;;;;;;18.30;12.27;;;;;;;;;;5003272;28;20212;-60
2023/08/25 03:40:47;;;;;;;20.65;13.45;;;;;;;;;;5012134;28;20208;-60
2023/08/25 03:43:15;;;;;;;25.85;15.40;;;;;;;;;;5007817;28;20205;-60
2023/08/25 03:45:42;;;;;;;29.02;16.90;;;;;;;;;;5003436;28;20315;-60
2023/08/25 03:48:09;;;;;;;26.10;17.00;;;;;;;;;;5014591;28;20211;-60
2023/08/25 03:50:36;;;;;;;24.67;16.90;;;;;;;;;;5001173;28;20201;-60
2023/08/25 03:53:03;;;;;;;22.98;14.38;;;;;;;;;;5008112;28;20221;-60
2023/08/25 03:55:30;;;;;;;22.17;16.15;;;;;;;;;;5014956;28;20219;-60
2023/08/25 03:57:58;;;;;;;23.88;16.60;;;;;;;;;;5012089;28;20201;-61
2023/08/25 04:00:26;;;;;;;20.15;14.35;;;;;;;;;;5003330;28;20217;-61
2023/08/25 04:02:53;;;;;;;35.65;20.33;;;;;;;;;;5019928;28;20435;-60
2023/08/25 04:05:20;;;;;;;30.55;18.90;;;;;;;;;;5020672;28;20861;-60
2023/08/25 04:07:48;;;;;;;26.80;17.13;;;;;;;;;;5008267;28;20288;-60
2023/08/25 04:10:15;;;;;;;32.17;17.27;;;;;;;;;;5007388;28;20208;-60
2023/08/25 04:12:43;;;;;;;27.23;16.90;;;;;;;;;;5001746;28;20527;-60
2023/08/25 04:15:10;;;;;;;26.70;17.58;;;;;;;;;;5010886;28;20235;-61
2023/08/25 04:17:38;;;;;;;21.35;17.00;;;;;;;;;;5003421;28;20619;-60
2023/08/25 04:20:06;;;;;;;24.27;18.48;;;;;;;;;;5019779;28;20671;-60
2023/08/25 04:22:33;;;;;;;38.97;18.05;;;;;;;;;;5005568;28;20629;-63
2023/08/25 04:25:00;;;;;;;30.77;16.60;;;;;;;;;;5008448;28;20235;-62
2023/08/25 04:27:27;;;;;;;28.90;16.73;;;;;;;;;;5005271;28;20228;-61
2023/08/25 04:29:54;;;;;;;23.02;15.93;;;;;;;;;;5006582;28;20658;-62
2023/08/25 04:32:22;;;;;;;24.13;15.63;;;;;;;;;;5013015;28;20224;-62
2023/08/25 04:34:50;;;;;;;20.95;14.00;;;;;;;;;;5012834;28;20204;-60
2023/08/25 04:37:18;;;;;;;22.33;13.90;;;;;;;;;;5004643;28;20224;-60
2023/08/25 04:39:45;;;;;;;20.23;13.23;;;;;;;;;;5024879;28;20236;-60
2023/08/25 04:45:43;;;;;;;21.30;16.73;;;;;;;;;;5005010;28;20718;-60
2023/08/25 04:48:10;;;;;;;20.88;15.60;;;;;;;;;;5007262;28;20200;-60
2023/08/25 04:50:39;;;;;;;19.95;15.27;;;;;;;;;;5015643;28;20212;-60
2023/08/25 04:53:06;;;;;;;21.65;16.05;;;;;;;;;;5014544;28;20228;-61
2023/08/25 04:55:34;;;;;;;24.25;16.45;;;;;;;;;;5012044;28;20212;-61
2023/08/25 04:58:01;;;;;;;16.67;13.35;;;;;;;;;;5006516;28;20671;-61
2023/08/25 05:00:29;;;;;;;18.35;12.63;;;;;;;;;;5020355;28;20413;-61
2023/08/25 05:02:56;;;;;;;17.70;11.77;;;;;;;;;;5011904;28;20244;-61
2023/08/25 05:05:23;;;;;;;17.33;13.35;;;;;;;;;;5022013;28;20218;-60
2023/08/25 05:07:52;;;;;;;17.88;13.68;;;;;;;;;;5022574;28;20212;-61
2023/08/25 05:10:19;;;;;;;22.67;15.68;;;;;;;;;;5007210;28;20868;-59
2023/08/25 05:12:46;;;;;;;22.80;15.02;;;;;;;;;;5003955;28;20220;-62
2023/08/25 05:15:13;;;;;;;25.67;17.02;;;;;;;;;;5016013;28;20212;-61
2023/08/25 05:17:40;;;;;;;25.15;15.77;;;;;;;;;;5022030;28;20235;-62
2023/08/25 05:20:10;;;;;;;26.13;17.40;;;;;;;;;;5021619;28;20208;-61
2023/08/25 05:22:37;;;;;;;23.73;16.73;;;;;;;;;;5018395;28;20361;-61
2023/08/25 05:25:06;;;;;;;28.00;17.50;;;;;;;;;;5005121;28;20357;-61
2023/08/25 05:27:33;;;;;;;28.88;16.23;;;;;;;;;;5002389;28;20256;-61
2023/08/25 05:30:00;;;;;;;27.10;17.67;;;;;;;;;;5002863;28;20216;-60
2023/08/25 05:32:27;;;;;;;18.33;12.40;;;;;;;;;;5000556;28;20315;-60
2023/08/25 05:34:54;;;;;;;25.75;16.55;;;;;;;;;;5006177;28;20212;-61
2023/08/25 05:37:21;;;;;;;22.08;12.85;;;;;;;;;;5020129;28;20200;-61
2023/08/25 05:39:49;;;;;;;21.17;15.10;;;;;;;;;;5015610;28;20216;-60
2023/08/25 05:42:17;;;;;;;20.00;13.45;;;;;;;;;;5015972;28;20659;-60
2023/08/25 05:44:45;;;;;;;18.15;12.48;;;;;;;;;;5008785;28;20212;-61
2023/08/25 05:47:12;;;;;;;18.85;13.25;;;;;;;;;;5018679;28;20216;-60
2023/08/25 05:49:39;;;;;;;26.38;16.25;;;;;;;;;;5014029;28;20301;-60
2023/08/25 05:52:06;;;;;;;18.80;11.57;;;;;;;;;;5002197;28;20239;-60
2023/08/25 05:54:33;;;;;;;23.15;15.65;;;;;;;;;;5002779;28;20208;-60
2023/08/25 05:57:00;;;;;;;18.20;12.30;;;;;;;;;;5000778;28;20260;-61
2023/08/25 05:59:32;;;;;;;19.48;13.55;;;;;;;;;;5000555;28;20825;-60
2023/08/25 06:01:59;;;;;;;17.30;12.35;;;;;;;;;;5013930;28;20246;-59
2023/08/25 06:04:26;;;;;;;17.73;12.50;;;;;;;;;;5021315;28;20207;-61
2023/08/25 06:06:53;;;;;;;23.45;14.70;;;;;;;;;;5017969;28;20680;-61
2023/08/25 06:09:21;;;;;;;14.57;11.70;;;;;;;;;;5008586;28;20215;-61
2023/08/25 06:11:48;;;;;;;16.67;11.15;;;;;;;;;;5001899;28;21276;-60
2023/08/25 06:14:15;;;;;;;15.98;12.05;;;;;;;;;;5002458;28;20223;-61
2023/08/25 06:16:44;;;;;;;15.07;12.25;;;;;;;;;;5004645;28;20228;-61
2023/08/25 06:19:11;;;;;;;18.77;13.15;;;;;;;;;;5004734;28;20220;-61
2023/08/25 06:21:38;;;;;;;17.98;12.32;;;;;;;;;;5003350;28;20216;-61
2023/08/25 06:24:05;;;;;;;16.80;12.75;;;;;;;;;;5004417;28;20231;-61
2023/08/25 06:26:33;;;;;;;16.55;12.13;;;;;;;;;;5002545;28;20216;-61
2023/08/25 06:29:00;;;;;;;16.92;12.18;;;;;;;;;;5004512;28;20247;-61
2023/08/25 06:31:33;;;;;;;15.88;10.60;;;;;;;;;;5004616;28;20220;-61
2023/08/25 06:34:03;;;;;;;15.27;11.75;;;;;;;;;;5004518;28;20213;-61
2023/08/25 06:36:30;;;;;;;20.52;13.70;;;;;;;;;;5003038;28;20324;-61
2023/08/25 06:38:57;;;;;;;20.02;13.90;;;;;;;;;;5004364;28;20212;-61
2023/08/25 06:41:24;;;;;;;19.63;13.98;;;;;;;;;;5003959;28;20634;-61
2023/08/25 06:43:51;;;;;;;17.23;12.80;;;;;;;;;;5002833;28;20667;-61
2023/08/25 06:46:18;;;;;;;17.20;13.32;;;;;;;;;;5007030;28;21065;-61
2023/08/25 06:48:46;;;;;;;16.45;13.25;;;;;;;;;;5008532;28;20200;-62
2023/08/25 06:51:14;;;;;;;17.52;12.77;;;;;;;;;;5018713;28;20259;-61
2023/08/25 06:53:41;;;;;;;17.35;13.48;;;;;;;;;;5023740;28;20235;-61
2023/08/25 06:56:08;;;;;;;16.60;12.48;;;;;;;;;;5023575;28;20212;-61
2023/08/25 06:58:36;;;;;;;14.35;12.23;;;;;;;;;;5022132;28;20307;-62
2023/08/25 07:01:04;;;;;;;16.38;13.07;;;;;;;;;;5011720;28;20209;-62
2023/08/25 07:03:31;;;;;;;16.92;12.25;;;;;;;;;;5002089;28;20209;-62
2023/08/25 07:05:58;;;;;;;14.18;11.38;;;;;;;;;;5004892;28;20221;-62
2023/08/25 07:08:27;;;;;;;14.48;12.65;;;;;;;;;;5003621;28;20890;-61
2023/08/25 07:10:54;;;;;;;16.50;13.95;;;;;;;;;;5003325;28;20243;-61
2023/08/25 07:13:21;;;;;;;15.18;13.05;;;;;;;;;;5015999;28;20239;-61
2023/08/25 07:15:48;;;;;;;10.68;9.68;;;;;;;;;;5021750;28;20799;-62
2023/08/25 07:18:15;;;;;;;17.40;13.60;;;;;;;;;;5023173;28;20464;-62
2023/08/25 07:20:42;;;;;;;16.73;12.85;;;;;;;;;;5018094;28;20208;-63
2023/08/25 07:23:09;;;;;;;14.43;12.02;;;;;;;;;;5018068;28;20235;-60
2023/08/25 07:25:43;;;;;;;16.30;12.57;;;;;;;;;;5018218;28;20671;-61
2023/08/25 07:28:10;;;;;;;11.48;10.07;;;;;;;;;;5021667;28;20299;-58
2023/08/25 07:30:37;;;;;;;10.30;9.30;;;;;;;;;;5017841;28;20228;-59
2023/08/25 07:33:05;;;;;;;10.32;9.27;;;;;;;;;;5003371;28;20715;-61
2023/08/25 07:35:34;;;;;;;10.48;9.38;;;;;;;;;;5001520;28;20832;-59
2023/08/25 07:38:01;;;;;;;11.10;7.80;;;;;;;;;;5004419;28;20223;-59
2023/08/25 07:40:29;;;;;;;9.27;8.20;;;;;;;;;;5001746;28;20251;-59
2023/08/25 07:42:58;;;;;;;12.85;8.68;;;;;;;;;;5003884;28;20205;-62
2023/08/25 07:45:26;;;;;;;8.77;7.78;;;;;;;;;;5003703;28;20705;-61
2023/08/25 07:47:55;;;;;;;10.00;7.50;;;;;;;;;;5001527;28;20221;-59
2023/08/25 07:50:22;;;;;;;7.90;7.07;;;;;;;;;;5003108;28;20247;-61
2023/08/25 07:52:49;;;;;;;70.07;10.48;;;;;;;;;;5002137;28;20239;-64
2023/08/25 07:55:16;;;;;;;7.45;6.60;;;;;;;;;;5012727;28;20211;-64
2023/08/25 07:57:43;;;;;;;19.00;6.65;;;;;;;;;;5020583;28;20212;-64
2023/08/25 08:00:14;;;;;;;8.07;6.00;;;;;;;;;;4998743;28;20205;-64
2023/08/25 08:02:43;;;;;;;7.55;5.60;;;;;;;;;;5008459;28;20225;-65
2023/08/25 08:05:10;;;;;;;9.00;6.10;;;;;;;;;;4997680;28;20213;-65
2023/08/25 08:07:38;;;;;;;13.65;5.68;;;;;;;;;;4997619;28;20216;-63
2023/08/25 08:10:05;;;;;;;10.65;6.30;;;;;;;;;;5003747;28;20209;-63
2023/08/25 08:12:32;;;;;;;15.20;5.90;;;;;;;;;;5001944;28;20789;-64
2023/08/25 08:14:59;;;;;;;5.80;5.40;;;;;;;;;;5006944;28;20217;-63
2023/08/25 08:17:26;;;;;;;5.72;4.60;;;;;;;;;;5006570;28;20564;-64
2023/08/25 08:19:55;;;;;;;4.85;4.40;;;;;;;;;;5005481;28;20217;-64
2023/08/25 08:22:22;;;;;;;5.38;4.20;;;;;;;;;;5006245;28;20215;-64
2023/08/25 08:24:49;;;;;;;4.25;3.80;;;;;;;;;;5009560;28;20201;-64
2023/08/25 08:27:17;;;;;;;6.63;3.88;;;;;;;;;;5019375;28;20208;-65
2023/08/25 08:29:44;;;;;;;3.97;3.65;;;;;;;;;;5001595;28;20217;-64
2023/08/25 08:32:11;;;;;;;3.90;3.60;;;;;;;;;;5004936;28;20861;-65
2023/08/25 08:34:38;;;;;;;3.13;2.92;;;;;;;;;;5004063;28;20714;-65
2023/08/25 08:37:07;;;;;;;6.10;3.28;;;;;;;;;;5006099;28;20209;-65
2023/08/25 08:39:34;;;;;;;3.67;3.28;;;;;;;;;;5004207;28;20259;-65
2023/08/25 08:42:02;;;;;;;3.65;3.40;;;;;;;;;;5005556;28;20217;-65
2023/08/25 08:44:31;;;;;;;2.92;2.70;;;;;;;;;;5003936;28;20395;-65
2023/08/25 08:46:58;;;;;;;3.78;3.50;;;;;;;;;;5005622;28;20221;-65
2023/08/25 08:49:26;;;;;;;3.72;3.20;;;;;;;;;;5005645;28;20576;-65
2023/08/25 08:51:53;;;;;;;9.25;3.78;;;;;;;;;;5004069;28;20213;-68
2023/08/25 08:54:22;;;;;;;3.08;2.80;;;;;;;;;;5005735;28;20225;-65
2023/08/25 08:56:50;;;;;;;6.22;2.92;;;;;;;;;;5003637;28;20681;-65
2023/08/25 08:59:17;;;;;;;3.08;2.85;;;;;;;;;;4999281;28;20283;-66
2023/08/25 09:01:44;;;;;;;3.40;3.00;;;;;;;;;;4997390;28;20462;-66
2023/08/25 09:04:12;;;;;;;3.58;2.97;;;;;;;;;;4998029;28;20220;-66
2023/08/25 09:06:39;;;;;;;2.83;2.65;;;;;;;;;;4999969;28;20505;-66
2023/08/25 09:09:08;;;;;;;5.18;2.92;;;;;;;;;;5003408;28;20214;-66
2023/08/25 09:11:37;;;;;;;4.85;3.13;;;;;;;;;;5003441;28;20275;-66
2023/08/25 09:14:05;;;;;;;5.05;2.90;;;;;;;;;;5002848;28;20611;-66
2023/08/25 09:16:33;;;;;;;8.57;2.80;;;;;;;;;;5000073;28;20213;-65
2023/08/25 09:19:01;;;;;;;3.20;2.80;;;;;;;;;;5000542;28;20307;-65
2023/08/25 09:21:28;;;;;;;3.00;2.78;;;;;;;;;;5001911;28;20244;-66
2023/08/25 09:23:56;;;;;;;5.25;2.30;;;;;;;;;;5002980;28;20233;-67
2023/08/25 09:26:24;;;;;;;2.50;2.38;;;;;;;;;;5003031;28;20221;-66
2023/08/25 09:28:54;;;;;;;2.83;2.63;;;;;;;;;;5004864;28;20209;-66
2023/08/25 09:31:22;;;;;;;3.00;2.60;;;;;;;;;;5003139;28;20216;-66
2023/08/25 09:33:49;;;;;;;3.83;2.45;;;;;;;;;;5004731;28;20260;-66
2023/08/25 09:36:16;;;;;;;3.03;2.33;;;;;;;;;;5004818;28;20292;-66
2023/08/25 09:38:45;;;;;;;2.45;2.30;;;;;;;;;;5003432;28;20217;-66
2023/08/25 09:41:12;;;;;;;2.33;2.22;;;;;;;;;;5005421;28;20213;-66
2023/08/25 09:43:40;;;;;;;2.10;2.00;;;;;;;;;;5003300;28;20224;-66
2023/08/25 09:46:10;;;;;;;2.15;1.70;;;;;;;;;;5004783;28;20209;-67
2023/08/25 09:48:37;;;;;;;1.92;1.83;;;;;;;;;;5002861;28;20839;-66
2023/08/25 09:51:06;;;;;;;2.33;2.20;;;;;;;;;;5004731;28;20218;-67
2023/08/25 09:53:36;;;;;;;2.00;1.90;;;;;;;;;;5002794;28;20233;-67
2023/08/25 09:56:05;;;;;;;1.80;1.80;;;;;;;;;;5004518;28;20217;-66
2023/08/25 09:58:33;;;;;;;5.97;2.03;;;;;;;;;;5002970;28;20248;-66
2023/08/25 10:01:00;;;;;;;5.45;2.13;;;;;;;;;;4999610;28;20213;-66
2023/08/25 10:03:28;;;;;;;1.95;1.95;;;;;;;;;;5001332;28;20216;-66
2023/08/25 10:05:55;;;;;;;2.75;2.13;;;;;;;;;;5001293;28;20220;-68
2023/08/25 10:08:23;;;;;;;1.65;1.60;;;;;;;;;;4999202;28;20264;-68
2023/08/25 10:10:50;;;;;;;2.03;1.92;;;;;;;;;;5001141;28;20220;-68
2023/08/25 10:13:19;;;;;;;3.28;1.90;;;;;;;;;;5002740;28;20225;-68
2023/08/25 10:15:47;;;;;;;1.95;1.73;;;;;;;;;;5004531;28;20282;-68
2023/08/25 10:18:14;;;;;;;2.55;2.35;;;;;;;;;;5004819;28;20236;-68
2023/08/25 10:20:44;;;;;;;2.85;1.88;;;;;;;;;;5002855;28;20233;-69
2023/08/25 10:23:12;;;;;;;2.50;2.03;;;;;;;;;;5004530;28;20237;-69
2023/08/25 10:25:39;;;;;;;1.83;1.83;;;;;;;;;;5002577;28;20227;-68
2023/08/25 10:28:08;;;;;;;2.00;1.90;;;;;;;;;;5004123;28;20438;-68
2023/08/25 10:30:35;;;;;;;2.30;2.17;;;;;;;;;;5002153;28;20255;-65
2023/08/25 10:33:04;;;;;;;2.03;1.73;;;;;;;;;;5003565;28;20637;-65
2023/08/25 10:35:39;;;;;;;2.33;2.05;;;;;;;;;;5001703;28;20734;-65
2023/08/25 10:38:10;;;;;;;2.03;1.80;;;;;;;;;;5003575;28;20208;-66
2023/08/25 10:40:41;;;;;;;1.63;1.50;;;;;;;;;;5002074;28;20290;-66
2023/08/25 10:43:08;;;;;;;3.55;1.90;;;;;;;;;;5002313;28;20656;-66
2023/08/25 10:45:36;;;;;;;3.28;2.25;;;;;;;;;;4998525;28;20201;-68
2023/08/25 10:48:03;;;;;;;1.85;1.35;;;;;;;;;;4998581;28;20254;-68
2023/08/25 10:50:30;;;;;;;2.13;2.03;;;;;;;;;;4998858;28;20209;-68
2023/08/25 10:52:57;;;;;;;1.83;1.70;;;;;;;;;;5000449;28;20687;-68
2023/08/25 10:55:26;;;;;;;1.65;1.60;;;;;;;;;;4998613;28;20228;-68
2023/08/25 10:57:54;;;;;;;2.13;2.03;;;;;;;;;;5003692;28;20224;-68
2023/08/25 11:00:29;;;;;;;1.77;1.77;;;;;;;;;;5001779;28;20668;-68
2023/08/25 11:02:56;;;;;;;1.67;1.58;;;;;;;;;;5003810;28;20263;-69
2023/08/25 11:05:39;;;;;;;1.88;1.77;;;;;;;;;;5001951;28;20217;-68
2023/08/25 11:08:07;;;;;;;1.60;1.60;;;;;;;;;;5000192;28;20433;-68
2023/08/25 11:10:36;;;;;;;1.80;1.70;;;;;;;;;;5001644;28;20475;-69
2023/08/25 11:13:08;;;;;;;1.65;1.52;;;;;;;;;;5003303;28;20270;-68
2023/08/25 11:15:36;;;;;;;2.92;1.80;;;;;;;;;;5001508;28;20209;-68
2023/08/25 11:18:04;;;;;;;2.85;1.88;;;;;;;;;;5003160;28;20248;-68
2023/08/25 11:20:31;;;;;;;1.77;1.75;;;;;;;;;;5001575;28;20217;-67
2023/08/25 11:22:59;;;;;;;1.80;1.60;;;;;;;;;;5003514;28;20227;-67
2023/08/25 11:25:26;;;;;;;1.83;1.73;;;;;;;;;;5003152;28;20205;-68
2023/08/25 11:27:54;;;;;;;2.42;1.63;;;;;;;;;;4999965;28;20224;-68
2023/08/25 11:30:22;;;;;;;1.70;1.60;;;;;;;;;;4999711;28;20315;-67
2023/08/25 11:32:49;;;;;;;5.00;2.00;;;;;;;;;;4997749;28;20663;-68
2023/08/25 11:35:16;;;;;;;1.50;1.50;;;;;;;;;;4997998;28;20251;-68
2023/08/25 11:37:45;;;;;;;1.58;1.40;;;;;;;;;;4998028;28;20225;-68
2023/08/25 11:40:13;;;;;;;1.95;1.80;;;;;;;;;;4998158;28;20205;-69
2023/08/25 11:42:40;;;;;;;3.65;1.90;;;;;;;;;;4998083;28;20631;-69
2023/08/25 11:45:09;;;;;;;1.90;1.80;;;;;;;;;;4999433;28;20209;-67
2023/08/25 11:47:37;;;;;;;1.92;1.85;;;;;;;;;;5002065;28;20212;-69
2023/08/25 11:50:05;;;;;;;2.80;1.80;;;;;;;;;;5006954;28;20215;-66
2023/08/25 11:52:33;;;;;;;1.75;1.65;;;;;;;;;;5004883;28;20616;-70
2023/08/25 11:55:00;;;;;;;1.60;1.50;;;;;;;;;;5007037;28;20237;-67
2023/08/25 11:57:34;;;;;;;2.50;2.05;;;;;;;;;;5005409;28;20209;-68
2023/08/25 12:00:02;;;;;;;3.65;1.77;;;;;;;;;;5007030;28;20677;-68
2023/08/25 12:02:31;;;;;;;5.00;1.90;;;;;;;;;;5004933;28;20348;-67
2023/08/25 12:04:59;;;;;;;3.00;1.77;;;;;;;;;;5006970;28;20232;-67
2023/08/25 12:07:26;;;;;;;1.98;1.83;;;;;;;;;;5006430;28;20286;-67
2023/08/25 12:09:54;;;;;;;1.58;1.58;;;;;;;;;;5005272;28;20267;-67
2023/08/25 12:12:22;;;;;;;1.92;1.83;;;;;;;;;;5006423;28;20213;-67
2023/08/25 12:14:51;;;;;;;3.58;1.98;;;;;;;;;;5004628;28;20576;-67
2023/08/25 12:17:23;;;;;;;1.60;1.50;;;;;;;;;;5006323;28;20236;-67
2023/08/25 12:19:51;;;;;;;1.80;1.70;;;;;;;;;;5001306;28;20263;-67
2023/08/25 12:22:18;;;;;;;2.03;1.92;;;;;;;;;;5000802;28;20589;-67
2023/08/25 12:24:46;;;;;;;3.30;1.75;;;;;;;;;;5001058;28;20209;-68
2023/08/25 12:27:13;;;;;;;2.28;2.17;;;;;;;;;;5001536;28;20565;-68
2023/08/25 12:29:41;;;;;;;3.50;2.10;;;;;;;;;;5001096;28;20209;-68
2023/08/25 12:32:08;;;;;;;2.10;2.03;;;;;;;;;;5002602;28;20217;-68
2023/08/25 12:34:35;;;;;;;1.95;1.70;;;;;;;;;;5005961;28;20232;-67
2023/08/25 12:37:04;;;;;;;3.85;1.90;;;;;;;;;;5006155;28;20209;-67
2023/08/25 12:39:34;;;;;;;1.90;1.80;;;;;;;;;;5004579;28;20213;-70
2023/08/25 12:42:04;;;;;;;3.00;1.90;;;;;;;;;;5006510;28;20220;-69
2023/08/25 12:44:31;;;;;;;2.00;1.90;;;;;;;;;;5004412;28;20216;-67
2023/08/25 12:46:58;;;;;;;3.60;2.28;;;;;;;;;;5006368;28;20676;-67
2023/08/25 12:49:25;;;;;;;3.08;2.28;;;;;;;;;;5005864;28;20213;-67
2023/08/25 12:51:52;;;;;;;5.28;2.13;;;;;;;;;;5014081;28;20215;-67
2023/08/25 12:54:21;;;;;;;2.28;2.08;;;;;;;;;;5004613;28;20233;-66
2023/08/25 12:56:50;;;;;;;2.10;2.00;;;;;;;;;;5009415;28;20212;-66
2023/08/25 12:59:17;;;;;;;4.03;1.90;;;;;;;;;;5019023;28;20693;-66
2023/08/25 13:01:44;;;;;;;2.35;2.25;;;;;;;;;;5005845;28;20244;-65
2023/08/25 13:04:11;;;;;;;2.00;2.00;;;;;;;;;;5005675;28;20212;-67
2023/08/25 13:06:38;;;;;;;2.15;2.15;;;;;;;;;;5016365;28;20245;-62
2023/08/25 13:09:05;;;;;;;2.00;2.00;;;;;;;;;;4999823;28;20331;-62
2023/08/25 13:11:34;;;;;;;2.45;2.30;;;;;;;;;;4999966;28;20298;-62
2023/08/25 13:14:01;;;;;;;2.47;2.20;;;;;;;;;;5011230;28;20212;-60
2023/08/25 13:16:28;;;;;;;2.28;2.17;;;;;;;;;;5014201;28;20209;-61
2023/08/25 13:18:55;;;;;;;2.15;2.05;;;;;;;;;;5023439;28;20208;-61
2023/08/25 13:21:22;;;;;;;3.22;2.25;;;;;;;;;;5007884;28;20212;-60
2023/08/25 13:23:49;;;;;;;1.92;1.83;;;;;;;;;;5003448;28;20212;-60
2023/08/25 13:26:16;;;;;;;2.35;2.25;;;;;;;;;;5008591;28;20254;-62
2023/08/25 13:28:45;;;;;;;4.18;2.13;;;;;;;;;;5012140;28;20205;-62
2023/08/25 13:31:12;;;;;;;3.95;2.20;;;;;;;;;;5008405;28;20212;-62
2023/08/25 13:33:39;;;;;;;2.28;2.17;;;;;;;;;;5023388;28;20235;-62
2023/08/25 13:36:06;;;;;;;7.32;2.47;;;;;;;;;;5013491;28;20808;-62
2023/08/25 13:38:33;;;;;;;2.83;2.63;;;;;;;;;;5001619;28;20220;-62
2023/08/25 13:41:00;;;;;;;2.47;2.38;;;;;;;;;;5000209;28;20220;-62
2023/08/25 13:43:28;;;;;;;2.13;2.13;;;;;;;;;;5002023;28;20240;-62
2023/08/25 13:45:57;;;;;;;2.30;2.20;;;;;;;;;;5002820;28;20219;-63
2023/08/25 13:48:24;;;;;;;2.78;2.58;;;;;;;;;;5005126;28;20220;-62
2023/08/25 13:50:51;;;;;;;5.63;2.70;;;;;;;;;;5001676;28;20701;-64
2023/08/25 13:53:18;;;;;;;2.65;2.33;;;;;;;;;;5001295;28;20222;-63
2023/08/25 13:55:45;;;;;;;3.05;2.45;;;;;;;;;;4999462;28;20279;-63
2023/08/25 13:58:12;;;;;;;3.15;2.83;;;;;;;;;;5000757;28;20201;-63
2023/08/25 14:00:39;;;;;;;3.17;2.90;;;;;;;;;;5002840;28;20219;-62
2023/08/25 14:03:07;;;;;;;3.28;3.08;;;;;;;;;;5004475;28;20240;-61
2023/08/25 14:05:35;;;;;;;2.55;2.55;;;;;;;;;;4999171;28;20208;-62
2023/08/25 14:08:02;;;;;;;4.43;3.42;;;;;;;;;;5002649;28;20707;-61
2023/08/25 14:10:30;;;;;;;4.45;2.90;;;;;;;;;;5002676;28;20693;-61
2023/08/25 14:12:57;;;;;;;4.10;3.15;;;;;;;;;;5005340;28;20206;-61
2023/08/25 14:15:24;;;;;;;4.45;2.45;;;;;;;;;;5017818;28;20232;-61
2023/08/25 14:17:51;;;;;;;3.40;2.85;;;;;;;;;;5001342;28;20221;-62
2023/08/25 14:20:20;;;;;;;3.20;2.85;;;;;;;;;;5004177;28;20227;-62
2023/08/25 14:22:47;;;;;;;3.40;3.10;;;;;;;;;;5002136;28;20576;-61
2023/08/25 14:25:14;;;;;;;4.32;2.95;;;;;;;;;;5011718;28;20197;-61
2023/08/25 14:27:41;;;;;;;7.05;2.80;;;;;;;;;;5003976;28;20242;-62
2023/08/25 14:30:09;;;;;;;4.60;2.83;;;;;;;;;;5003972;28;20217;-62
2023/08/25 14:32:36;;;;;;;4.03;3.08;;;;;;;;;;5001585;28;20213;-62
2023/08/25 14:35:03;;;;;;;6.50;3.20;;;;;;;;;;4998585;28;20236;-62
2023/08/25 14:37:32;;;;;;;7.00;3.30;;;;;;;;;;5000457;28;20255;-62
2023/08/25 14:39:59;;;;;;;3.20;2.92;;;;;;;;;;5004070;28;20216;-64